createdAt,value
2019-03-02T00:01:45.867Z,32.67
2019-03-02T00:04:16.764Z,34.10
2019-03-02T00:06:46.316Z,37.17
2019-03-02T00:09:15.889Z,38.63
2019-03-02T00:11:45.729Z,42.00
2019-03-02T00:14:15.733Z,31.10
2019-03-02T00:16:46.551Z,32.20
2019-03-02T00:19:16.120Z,39.33
2019-03-02T00:21:45.672Z,35.20
2019-03-02T00:24:15.504Z,39.93
2019-03-02T00:26:46.005Z,37.23
2019-03-02T00:29:16.860Z,36.10
2019-03-02T00:31:46.404Z,38.03
2019-03-02T00:34:16.248Z,38.70
2019-03-02T00:36:45.804Z,38.90
2019-03-02T00:39:18.914Z,35.13
2019-03-02T00:41:46.919Z,30.93
2019-03-02T00:44:16.860Z,32.37
2019-03-02T00:46:46.690Z,31.90
2019-03-02T00:49:19.598Z,32.47
2019-03-02T00:51:47.738Z,30.50
2019-03-02T00:54:17.296Z,31.10
2019-03-02T00:56:46.863Z,29.60
2019-03-02T00:59:16.409Z,28.37
2019-03-02T01:02:00.801Z,33.10
2019-03-02T01:04:29.585Z,31.20
2019-03-02T01:06:59.200Z,35.60
2019-03-02T01:09:29.100Z,29.10
2019-03-02T01:11:58.640Z,33.33
2019-03-02T01:14:28.698Z,30.67
2019-03-02T01:17:00.374Z,29.40
2019-03-02T01:19:30.284Z,32.17
2019-03-02T01:22:00.096Z,25.53
2019-03-02T01:24:30.221Z,28.57
2019-03-02T01:27:00.602Z,26.87
2019-03-02T01:29:30.268Z,25.63
2019-03-02T01:32:00.072Z,22.10
2019-03-02T01:34:30.512Z,25.23
2019-03-02T01:37:00.370Z,28.97
2019-03-02T01:39:30.207Z,30.33
2019-03-02T01:41:59.785Z,26.00
2019-03-02T01:44:29.937Z,28.93
2019-03-02T01:46:59.566Z,29.43
2019-03-02T01:49:29.761Z,27.27
2019-03-02T01:51:59.300Z,28.10
2019-03-02T01:54:28.878Z,32.23
2019-03-02T01:56:58.678Z,29.30
2019-03-02T01:59:28.226Z,27.33
2019-03-02T02:02:00.122Z,26.73
2019-03-02T02:04:29.856Z,33.00
2019-03-02T02:06:59.781Z,24.73
2019-03-02T02:09:29.331Z,28.97
2019-03-02T02:11:59.288Z,30.50
2019-03-02T02:14:29.513Z,25.53
2019-03-02T02:16:59.085Z,26.60
2019-03-02T02:19:28.640Z,23.70
2019-03-02T02:21:58.754Z,21.33
2019-03-02T02:24:29.775Z,22.97
2019-03-02T02:27:22.455Z,26.57
2019-03-02T02:29:51.693Z,22.63
2019-03-02T02:32:24.147Z,20.93
2019-03-02T02:34:56.430Z,26.20
2019-03-02T02:37:24.340Z,24.57
2019-03-02T02:39:53.886Z,27.63
2019-03-02T02:42:23.749Z,24.43
2019-03-02T02:44:53.300Z,25.20
2019-03-02T02:47:22.844Z,24.93
2019-03-02T02:49:52.625Z,24.80
2019-03-02T02:52:27.671Z,33.03
2019-03-02T02:54:57.415Z,22.93
2019-03-02T02:57:25.788Z,28.00
2019-03-02T02:59:55.332Z,23.10
2019-03-02T03:02:24.953Z,30.13
2019-03-02T03:04:54.814Z,25.03
2019-03-02T03:07:24.356Z,30.07
2019-03-02T03:10:06.007Z,32.10
2019-03-02T03:12:35.903Z,29.87
2019-03-02T03:15:05.833Z,30.53
2019-03-02T03:17:35.641Z,33.03
2019-03-02T03:20:17.944Z,31.17
2019-03-02T03:22:47.712Z,30.03
2019-03-02T03:25:18.054Z,30.40
2019-03-02T03:27:51.751Z,28.40
2019-03-02T03:30:33.890Z,26.43
2019-03-02T03:32:55.918Z,27.27
2019-03-02T03:35:23.195Z,23.77
2019-03-02T03:37:53.139Z,25.10
2019-03-02T03:40:25.469Z,24.90
2019-03-02T03:43:02.415Z,26.97
2019-03-02T03:45:27.986Z,24.70
2019-03-02T03:47:57.045Z,26.93
2019-03-02T03:50:26.661Z,21.83
2019-03-02T03:52:56.574Z,24.93
2019-03-02T03:55:27.480Z,21.70
2019-03-02T03:58:00.462Z,22.80
2019-03-02T04:00:40.420Z,21.40
2019-03-02T04:03:13.675Z,22.70
2019-03-02T04:05:42.217Z,22.53
2019-03-02T04:08:13.145Z,24.63
2019-03-02T04:10:42.697Z,28.73
2019-03-02T04:13:12.266Z,24.67
2019-03-02T04:15:43.544Z,20.70
2019-03-02T04:18:50.174Z,26.27
2019-03-02T04:21:23.309Z,24.03
2019-03-02T04:23:56.165Z,21.83
2019-03-02T04:26:24.301Z,26.60
2019-03-02T04:28:53.866Z,27.10
2019-03-02T04:31:23.722Z,22.90
2019-03-02T04:33:53.536Z,24.90
2019-03-02T04:36:23.112Z,26.83
2019-03-02T04:38:52.644Z,20.17
2019-03-02T04:41:22.260Z,25.77
2019-03-02T04:43:53.942Z,24.03
2019-03-02T04:46:23.301Z,26.10
2019-03-02T04:48:53.468Z,24.50
2019-03-02T04:51:23.173Z,24.43
2019-03-02T04:53:53.452Z,17.63
2019-03-02T04:56:24.142Z,23.67
2019-03-02T04:58:54.252Z,23.77
2019-03-02T05:01:23.808Z,21.87
2019-03-02T05:03:53.760Z,21.80
2019-03-02T05:06:24.613Z,23.47
2019-03-02T05:08:54.467Z,26.30
2019-03-02T05:11:24.044Z,22.60
2019-03-02T05:13:54.192Z,22.03
2019-03-02T05:16:25.498Z,26.67
2019-03-02T05:18:54.996Z,26.43
2019-03-02T05:21:24.576Z,24.90
2019-03-02T05:23:54.461Z,23.87
2019-03-02T05:26:24.388Z,27.13
2019-03-02T05:28:53.948Z,25.03
2019-03-02T05:31:23.719Z,26.00
2019-03-02T05:33:53.600Z,23.40
2019-03-02T05:36:26.670Z,23.80
2019-03-02T05:38:54.405Z,26.17
2019-03-02T05:41:24.265Z,22.50
2019-03-02T05:43:53.829Z,23.30
2019-03-02T05:46:25.589Z,24.07
2019-03-02T05:48:54.708Z,23.03
2019-03-02T05:51:24.271Z,26.27
2019-03-02T05:53:54.141Z,24.80
2019-03-02T05:56:26.012Z,24.50
2019-03-02T05:58:56.389Z,21.80
2019-03-02T06:01:25.941Z,26.03
2019-03-02T06:03:55.744Z,22.67
2019-03-02T06:06:25.319Z,23.77
2019-03-02T06:08:54.920Z,23.37
2019-03-02T06:11:24.493Z,27.20
2019-03-02T06:13:54.472Z,22.50
2019-03-02T06:16:24.385Z,20.73
2019-03-02T06:18:54.004Z,21.57
2019-03-02T06:21:23.564Z,20.87
2019-03-02T06:23:53.162Z,19.17
2019-03-02T06:26:23.021Z,20.73
2019-03-02T06:28:54.627Z,18.43
2019-03-02T06:31:23.900Z,20.10
2019-03-02T06:33:53.776Z,23.77
2019-03-02T06:36:23.588Z,21.73
2019-03-02T06:38:53.809Z,22.80
2019-03-02T06:41:23.620Z,23.60
2019-03-02T06:43:55.081Z,24.93
2019-03-02T06:46:24.679Z,22.80
2019-03-02T06:48:54.492Z,21.30
2019-03-02T06:51:24.300Z,23.07
2019-03-02T06:53:54.112Z,22.57
2019-03-02T06:56:23.921Z,23.20
2019-03-02T06:58:53.479Z,26.37
2019-03-02T07:01:24.711Z,25.40
2019-03-02T07:03:54.589Z,24.83
2019-03-02T07:06:24.132Z,24.20
2019-03-02T07:08:53.700Z,23.70
2019-03-02T07:11:24.112Z,23.53
2019-03-02T07:13:56.338Z,24.23
2019-03-02T07:16:25.152Z,22.63
2019-03-02T07:19:00.058Z,24.80
2019-03-02T07:21:29.736Z,22.10
2019-03-02T07:23:59.289Z,20.90
2019-03-02T07:26:28.864Z,21.97
2019-03-02T07:28:58.732Z,23.70
2019-03-02T07:31:38.688Z,26.73
2019-03-02T07:34:08.747Z,22.60
2019-03-02T07:36:39.635Z,24.67
2019-03-02T07:39:09.205Z,23.90
2019-03-02T07:41:38.748Z,24.47
2019-03-02T07:44:08.301Z,23.60
2019-03-02T07:46:38.104Z,20.40
2019-03-02T07:49:09.232Z,24.47
2019-03-02T07:51:41.492Z,19.97
2019-03-02T07:54:10.357Z,21.70
2019-03-02T07:56:39.911Z,20.20
2019-03-02T07:59:09.780Z,22.03
2019-03-02T08:01:40.008Z,23.60
2019-03-02T08:04:09.808Z,23.77
2019-03-02T08:06:39.353Z,23.63
2019-03-02T08:09:09.340Z,22.20
2019-03-02T08:11:39.344Z,24.50
2019-03-02T08:14:12.310Z,19.20
2019-03-02T08:16:40.601Z,21.73
2019-03-02T08:19:10.224Z,23.53
2019-03-02T08:21:49.458Z,25.27
2019-03-02T08:24:19.008Z,26.37
2019-03-02T08:26:48.868Z,23.70
2019-03-02T08:29:21.035Z,24.90
2019-03-02T08:31:50.092Z,25.93
2019-03-02T08:34:19.937Z,25.43
2019-03-02T08:36:50.310Z,22.17
2019-03-02T08:39:20.792Z,21.97
2019-03-02T08:41:50.598Z,22.60
2019-03-02T08:44:21.025Z,23.63
2019-03-02T08:46:50.916Z,23.50
2019-03-02T08:49:20.480Z,18.37
2019-03-02T08:51:50.371Z,25.17
2019-03-02T08:54:21.571Z,23.53
2019-03-02T08:56:51.828Z,23.60
2019-03-02T08:59:21.488Z,19.20
2019-03-02T09:04:27.909Z,26.47
2019-03-02T09:06:57.822Z,21.63
2019-03-02T09:09:28.040Z,21.83
2019-03-02T09:11:57.615Z,20.80
2019-03-02T09:14:27.561Z,22.33
2019-03-02T09:16:57.686Z,20.70
2019-03-02T09:19:27.287Z,18.27
2019-03-02T09:21:57.101Z,23.10
2019-03-02T09:24:26.917Z,18.53
2019-03-02T09:26:56.564Z,21.60
2019-03-02T09:29:26.184Z,23.03
2019-03-02T09:31:56.033Z,23.33
2019-03-02T09:34:30.861Z,22.33
2019-03-02T09:37:03.804Z,23.03
2019-03-02T09:39:37.341Z,22.53
2019-03-02T09:42:03.129Z,24.20
2019-03-02T09:44:41.880Z,23.33
2019-03-02T09:47:12.752Z,18.47
2019-03-02T09:49:44.478Z,20.80
2019-03-02T09:52:14.037Z,25.17
2019-03-02T09:54:44.065Z,26.03
2019-03-02T09:57:13.697Z,21.37
2019-03-02T09:59:45.396Z,25.30
2019-03-02T10:02:15.661Z,30.20
2019-03-02T10:04:45.797Z,27.10
2019-03-02T10:07:15.356Z,34.47
2019-03-02T10:09:45.313Z,33.50
2019-03-02T10:12:15.133Z,41.23
2019-03-02T10:14:44.808Z,40.87
2019-03-02T10:17:14.432Z,37.93
2019-03-02T10:19:49.834Z,34.93
2019-03-02T10:22:19.771Z,29.03
2019-03-02T10:24:53.213Z,34.20
2019-03-02T10:27:23.830Z,38.60
2019-03-02T10:29:53.749Z,36.70
2019-03-02T10:32:23.550Z,38.57
2019-03-02T10:34:53.100Z,36.20
2019-03-02T10:37:22.662Z,28.40
2019-03-02T10:39:52.297Z,41.87
2019-03-02T10:42:21.880Z,31.33
2019-03-02T10:44:53.730Z,37.53
2019-03-02T10:47:24.873Z,30.94
2019-03-02T10:49:54.457Z,31.63
2019-03-02T10:52:24.068Z,39.27
2019-03-02T10:54:55.627Z,42.40
2019-03-02T10:57:29.622Z,37.53
2019-03-02T10:59:59.269Z,35.27
2019-03-02T11:02:29.169Z,35.63
2019-03-02T11:05:21.119Z,31.90
2019-03-02T11:08:04.218Z,39.90
2019-03-02T11:10:52.192Z,38.63
2019-03-02T11:13:29.545Z,40.63
2019-03-02T11:16:20.544Z,43.10
2019-03-02T11:19:01.624Z,37.33
2019-03-02T11:21:53.351Z,38.15
2019-03-02T11:24:37.680Z,27.10
2019-03-02T11:27:19.901Z,33.93
2019-03-02T11:30:00.673Z,34.33
2019-03-02T11:32:43.249Z,26.17
2019-03-02T11:35:22.617Z,29.67
2019-03-02T11:38:03.990Z,38.57
2019-03-02T11:40:56.241Z,35.70
2019-03-02T11:43:56.651Z,33.10
2019-03-02T11:46:31.180Z,34.13
2019-03-02T11:49:29.776Z,38.03
2019-03-02T11:52:09.212Z,52.67
2019-03-02T11:55:00.948Z,46.30
2019-03-02T11:57:43.234Z,38.87
2019-03-02T12:00:37.767Z,28.93
2019-03-02T12:03:39.126Z,30.27
2019-03-02T12:06:26.805Z,43.93
2019-03-02T12:09:05.552Z,35.10
2019-03-02T12:12:10.972Z,34.07
2019-03-02T12:14:58.452Z,35.60
2019-03-02T12:17:43.715Z,25.20
2019-03-02T12:20:47.587Z,28.17
2019-03-02T12:23:37.651Z,28.67
2019-03-02T12:26:26.661Z,22.83
2019-03-02T12:29:28.006Z,36.97
2019-03-02T12:32:03.883Z,27.53
2019-03-02T12:34:42.825Z,28.40
2019-03-02T12:37:28.386Z,25.03
2019-03-02T12:40:18.251Z,27.60
2019-03-02T12:43:09.586Z,24.60
2019-03-02T12:45:45.844Z,21.70
2019-03-02T12:48:36.838Z,37.73
2019-03-02T12:51:21.865Z,34.23
2019-03-02T12:54:13.561Z,30.90
2019-03-02T12:56:52.586Z,31.60
2019-03-02T12:59:40.650Z,30.50
2019-03-02T13:02:16.080Z,34.70
2019-03-02T13:05:13.672Z,25.10
2019-03-02T13:08:14.693Z,25.90
2019-03-02T13:10:57.629Z,22.70
2019-03-02T13:13:43.820Z,20.67
2019-03-02T13:16:31.413Z,29.33
2019-03-02T13:19:19.096Z,31.90
2019-03-02T13:22:15.934Z,34.93
2019-03-02T13:24:57.720Z,28.00
2019-03-02T13:27:43.600Z,34.30
2019-03-02T13:30:25.710Z,32.87
2019-03-02T13:33:08.096Z,29.43
2019-03-02T13:36:00.701Z,31.90
2019-03-02T13:38:49.818Z,28.23
2019-03-02T13:41:43.005Z,34.87
2019-03-02T13:44:29.269Z,30.47
2019-03-02T13:47:18.228Z,38.03
2019-03-02T13:49:56.924Z,38.30
2019-03-02T13:52:35.360Z,29.20
2019-03-02T13:55:16.405Z,27.50
2019-03-02T13:58:05.092Z,32.20
2019-03-02T14:00:52.767Z,28.40
2019-03-02T14:03:39.900Z,30.23
2019-03-02T14:06:29.072Z,28.97
2019-03-02T14:09:16.153Z,43.03
2019-03-02T14:12:04.000Z,37.47
2019-03-02T14:14:59.777Z,40.93
2019-03-02T14:18:01.764Z,26.07
2019-03-02T14:20:37.796Z,30.77
2019-03-02T14:23:31.307Z,33.90
2019-03-02T14:26:20.144Z,42.33
2019-03-02T14:29:19.213Z,34.77
2019-03-02T14:32:20.084Z,31.07
2019-03-02T14:34:59.168Z,37.13
2019-03-02T14:37:38.728Z,36.63
2019-03-02T14:40:20.613Z,28.20
2019-03-02T14:43:15.811Z,32.70
2019-03-02T14:45:55.353Z,28.73
2019-03-02T14:48:41.045Z,39.00
2019-03-02T14:51:28.332Z,29.67
2019-03-02T14:54:20.640Z,32.73
2019-03-02T14:57:10.519Z,32.93
2019-03-02T15:00:05.008Z,25.00
2019-03-02T15:02:52.152Z,26.50
2019-03-02T15:05:29.981Z,25.43
2019-03-02T15:08:31.473Z,27.67
2019-03-02T15:11:13.562Z,26.60
2019-03-02T15:14:02.541Z,26.27
2019-03-02T15:16:45.148Z,25.67
2019-03-02T15:19:41.344Z,22.53
2019-03-02T15:22:14.766Z,30.00
2019-03-02T15:24:59.699Z,25.97
2019-03-02T15:27:56.710Z,29.39
2019-03-02T15:30:44.275Z,27.37
2019-03-02T15:33:33.926Z,32.70
2019-03-02T15:36:21.389Z,30.77
2019-03-02T15:39:08.096Z,29.70
2019-03-02T15:41:57.054Z,33.20
2019-03-02T15:44:46.626Z,20.30
2019-03-02T15:47:24.097Z,27.43
2019-03-02T15:50:02.629Z,25.10
2019-03-02T15:52:52.436Z,24.10
2019-03-02T15:55:41.199Z,26.67
2019-03-02T15:58:38.921Z,23.53
2019-03-02T16:01:32.785Z,30.20
2019-03-02T16:04:11.872Z,32.20
2019-03-02T16:07:07.033Z,21.97
2019-03-02T16:09:56.088Z,27.50
2019-03-02T16:12:33.761Z,19.77
2019-03-02T16:15:20.625Z,20.73
2019-03-02T16:18:00.957Z,20.53
2019-03-02T16:20:46.626Z,23.90
2019-03-02T16:23:38.876Z,18.33
2019-03-02T16:26:17.018Z,23.90
2019-03-02T16:28:57.224Z,18.50
2019-03-02T16:31:47.828Z,23.37
2019-03-02T16:34:36.900Z,21.77
2019-03-02T16:37:24.536Z,23.57
2019-03-02T16:40:22.156Z,22.63
2019-03-02T16:43:09.104Z,21.43
2019-03-02T16:45:58.468Z,25.77
2019-03-02T16:48:49.821Z,22.70
2019-03-02T16:51:33.417Z,21.13
2019-03-02T16:54:20.873Z,24.03
2019-03-02T16:57:10.628Z,23.17
2019-03-02T17:00:08.956Z,24.57
2019-03-02T17:02:55.197Z,31.67
2019-03-02T17:05:44.453Z,22.27
2019-03-02T17:08:35.290Z,24.90
2019-03-02T17:11:40.415Z,23.73
2019-03-02T17:14:35.249Z,26.50
2019-03-02T17:17:39.624Z,22.70
2019-03-02T17:20:18.000Z,29.10
2019-03-02T17:23:05.340Z,31.30
2019-03-02T17:25:49.528Z,31.53
2019-03-02T17:28:31.479Z,26.57
2019-03-02T17:31:16.407Z,24.73
2019-03-02T17:34:11.622Z,22.30
2019-03-02T17:36:59.761Z,28.30
2019-03-02T17:39:47.753Z,24.00
2019-03-02T17:42:36.457Z,22.53
2019-03-02T17:45:17.169Z,26.13
2019-03-02T17:48:05.146Z,29.40
2019-03-02T17:50:58.370Z,29.23
2019-03-02T17:53:44.570Z,23.17
2019-03-02T17:56:33.200Z,27.07
2019-03-02T17:59:21.148Z,24.37
2019-03-02T18:02:00.798Z,21.53
2019-03-02T18:04:39.347Z,19.60
2019-03-02T18:07:19.364Z,20.67
2019-03-02T18:10:10.914Z,24.53
2019-03-02T18:12:58.231Z,19.83
2019-03-02T18:15:47.589Z,19.27
2019-03-02T18:18:31.493Z,22.10
2019-03-02T18:20:59.997Z,14.67
2019-03-02T18:23:29.817Z,15.10
2019-03-02T18:26:06.481Z,20.97
2019-03-02T18:28:36.637Z,10.47
2019-03-02T18:31:06.504Z,13.33
2019-03-02T18:33:44.450Z,12.03
2019-03-02T18:36:13.330Z,12.33
2019-03-02T18:38:51.056Z,11.67
2019-03-02T18:41:20.900Z,10.93
2019-03-02T18:43:50.726Z,11.53
2019-03-02T18:46:20.378Z,10.00
2019-03-02T18:49:18.846Z,7.63
2019-03-02T18:52:06.393Z,6.60
2019-03-02T18:54:35.921Z,6.23
2019-03-02T18:57:05.853Z,5.63
2019-03-02T18:59:35.760Z,9.40
2019-03-02T19:02:11.504Z,8.63
2019-03-02T19:04:41.739Z,10.70
2019-03-02T19:07:11.364Z,8.90
2019-03-02T19:09:41.070Z,8.63
2019-03-02T19:12:11.362Z,11.97
2019-03-02T19:14:41.288Z,9.50
2019-03-02T19:17:11.200Z,10.47
2019-03-02T19:19:41.177Z,20.13
2019-03-02T19:22:10.746Z,10.97
2019-03-02T19:24:40.307Z,7.65
2019-03-02T19:27:25.067Z,7.93
2019-03-02T19:30:01.676Z,8.50
2019-03-02T19:32:33.925Z,7.13
2019-03-02T19:35:03.940Z,6.27
2019-03-02T19:37:33.913Z,6.95
2019-03-02T19:40:04.074Z,6.77
2019-03-02T19:42:33.880Z,6.90
2019-03-02T19:45:03.904Z,4.67
2019-03-02T19:47:33.488Z,7.40
2019-03-02T19:50:03.153Z,6.63
2019-03-02T19:52:44.597Z,5.07
2019-03-02T19:55:15.637Z,7.47
2019-03-02T19:57:45.396Z,6.17
2019-03-02T20:00:18.061Z,4.50
2019-03-02T20:02:47.747Z,5.20
2019-03-02T20:05:17.468Z,5.43
2019-03-02T20:07:47.124Z,4.20
2019-03-02T20:10:16.888Z,6.60
2019-03-02T20:12:46.880Z,6.77
2019-03-02T20:15:18.125Z,4.60
2019-03-02T20:17:48.104Z,5.83
2019-03-02T20:20:17.785Z,6.43
2019-03-02T20:22:47.656Z,7.00
2019-03-02T20:25:18.054Z,5.17
2019-03-02T20:27:48.671Z,4.57
2019-03-02T20:30:22.518Z,7.97
2019-03-02T20:32:53.314Z,5.00
2019-03-02T20:35:23.464Z,6.37
2019-03-02T20:37:53.269Z,5.47
2019-03-02T20:40:23.368Z,3.97
2019-03-02T20:42:53.624Z,8.23
2019-03-02T20:45:23.397Z,5.40
2019-03-02T20:47:53.700Z,3.70
2019-03-02T20:50:23.665Z,5.60
2019-03-02T20:52:53.885Z,4.97
2019-03-02T20:55:24.172Z,5.73
2019-03-02T20:57:53.856Z,3.17
2019-03-02T21:00:25.644Z,5.70
2019-03-02T21:02:55.949Z,3.70
2019-03-02T21:05:26.321Z,4.63
2019-03-02T21:07:56.358Z,6.17
2019-03-02T21:10:25.960Z,4.30
2019-03-02T21:12:56.161Z,4.33
2019-03-02T21:15:31.289Z,6.15
2019-03-02T21:18:01.325Z,4.63
2019-03-02T21:20:31.439Z,4.23
2019-03-02T21:23:01.608Z,7.40
2019-03-02T21:25:32.177Z,4.90
2019-03-02T21:28:08.409Z,5.00
2019-03-02T21:30:37.962Z,5.07
2019-03-02T21:33:07.524Z,7.53
2019-03-02T21:35:37.470Z,11.77
2019-03-02T21:38:07.569Z,4.37
2019-03-02T21:40:37.500Z,11.13
2019-03-02T21:43:07.121Z,15.53
2019-03-02T21:45:37.366Z,7.30
2019-03-02T21:48:07.020Z,11.87
2019-03-02T21:50:36.651Z,12.37
2019-03-02T21:53:06.556Z,7.43
2019-03-02T21:55:36.191Z,4.37
2019-03-02T21:58:05.996Z,9.73
2019-03-02T22:00:35.869Z,4.87
2019-03-02T22:03:05.965Z,3.50
2019-03-02T22:05:35.520Z,5.13
2019-03-02T22:08:05.677Z,3.40
2019-03-02T22:10:40.133Z,3.87
2019-03-02T22:13:09.718Z,3.77
2019-03-02T22:15:39.328Z,4.17
2019-03-02T22:18:08.872Z,4.10
2019-03-02T22:20:38.780Z,5.43
2019-03-02T22:23:23.531Z,5.20
2019-03-02T22:25:53.181Z,5.37
2019-03-02T22:28:22.833Z,4.60
2019-03-02T22:30:52.936Z,5.60
2019-03-02T22:33:22.524Z,4.30
2019-03-02T22:36:00.735Z,5.92
2019-03-02T22:38:30.904Z,6.00
2019-03-02T22:41:01.002Z,4.30
2019-03-02T22:43:31.154Z,5.63
2019-03-02T22:46:00.676Z,8.07
2019-03-02T22:48:35.361Z,4.70
2019-03-02T22:51:04.984Z,4.10
2019-03-02T22:53:34.552Z,5.43
2019-03-02T22:56:04.131Z,4.77
2019-03-02T22:58:32.837Z,3.97
2019-03-02T23:01:41.528Z,6.33
2019-03-02T23:04:13.526Z,4.80
2019-03-02T23:06:43.365Z,3.70
2019-03-02T23:09:13.082Z,5.67
2019-03-02T23:11:42.648Z,6.30
2019-03-02T23:14:12.496Z,6.93
2019-03-02T23:16:42.196Z,7.43
2019-03-02T23:19:12.396Z,4.60
2019-03-02T23:21:42.230Z,5.00
2019-03-02T23:24:23.997Z,4.73
2019-03-02T23:26:53.672Z,5.60
2019-03-02T23:29:23.505Z,6.10
2019-03-02T23:31:53.357Z,6.40
2019-03-02T23:34:23.171Z,3.83
2019-03-02T23:36:52.981Z,5.73
2019-03-02T23:39:22.784Z,5.87
2019-03-02T23:41:52.336Z,5.73
2019-03-02T23:44:21.877Z,6.57
2019-03-02T23:46:51.424Z,4.70
2019-03-02T23:49:29.845Z,4.38
2019-03-02T23:51:59.397Z,6.27
2019-03-02T23:54:29.236Z,5.73
2019-03-02T23:56:59.045Z,4.03
2019-03-02T23:59:28.640Z,6.23
